createdAt,value
2022-09-14T00:01:34.698Z,5.10
2022-09-14T00:04:08.802Z,4.50
2022-09-14T00:06:37.149Z,5.07
2022-09-14T00:09:11.027Z,4.22
2022-09-14T00:11:38.818Z,4.15
2022-09-14T00:14:06.988Z,5.32
2022-09-14T00:16:38.145Z,3.60
2022-09-14T00:19:18.386Z,3.90
2022-09-14T00:21:49.378Z,4.65
2022-09-14T00:24:17.618Z,4.55
2022-09-14T00:26:45.284Z,3.58
2022-09-14T00:29:12.872Z,5.28
2022-09-14T00:31:41.140Z,4.22
2022-09-14T00:34:13.066Z,3.60
2022-09-14T00:36:43.414Z,3.33
2022-09-14T00:39:12.074Z,3.10
2022-09-14T00:41:42.497Z,4.45
2022-09-14T00:44:12.879Z,5.45
2022-09-14T00:46:44.808Z,5.57
2022-09-14T00:49:20.945Z,4.90
2022-09-14T00:52:01.131Z,6.10
2022-09-14T00:54:28.699Z,5.05
2022-09-14T00:56:59.126Z,5.20
2022-09-14T00:59:30.037Z,5.05
2022-09-14T01:01:57.786Z,6.63
2022-09-14T01:04:26.225Z,6.80
2022-09-14T01:07:01.579Z,6.32
2022-09-14T01:10:03.449Z,4.30
2022-09-14T01:12:57.333Z,6.03
2022-09-14T01:15:52.721Z,8.70
2022-09-14T01:18:45.753Z,9.63
2022-09-14T01:21:19.996Z,6.50
2022-09-14T01:23:52.777Z,5.57
2022-09-14T01:26:29.044Z,7.65
2022-09-14T01:29:42.350Z,5.43
2022-09-14T01:32:26.207Z,7.43
2022-09-14T01:35:14.041Z,6.60
2022-09-14T01:37:49.735Z,7.50
2022-09-14T01:40:29.614Z,6.68
2022-09-14T01:43:19.072Z,5.93
2022-09-14T01:45:51.541Z,8.70
2022-09-14T01:48:26.942Z,6.80
2022-09-14T01:50:59.268Z,8.95
2022-09-14T01:53:39.099Z,7.45
2022-09-14T01:56:24.014Z,7.70
2022-09-14T01:59:05.662Z,7.28
2022-09-14T02:01:41.334Z,6.87
2022-09-14T02:04:14.059Z,6.90
2022-09-14T02:06:47.768Z,9.45
2022-09-14T02:09:21.387Z,9.53
2022-09-14T02:11:49.256Z,9.93
2022-09-14T02:14:16.981Z,9.63
2022-09-14T02:16:46.379Z,10.18
2022-09-14T02:19:14.564Z,11.07
2022-09-14T02:21:42.526Z,9.57
2022-09-14T02:24:11.437Z,9.10
2022-09-14T02:26:40.008Z,9.30
2022-09-14T02:29:07.711Z,13.15
2022-09-14T02:31:43.711Z,10.27
2022-09-14T02:34:38.141Z,10.88
2022-09-14T02:37:36.456Z,10.20
2022-09-14T02:40:12.941Z,11.53
2022-09-14T02:42:43.834Z,10.77
2022-09-14T02:45:29.367Z,12.55
2022-09-14T02:48:00.683Z,12.33
2022-09-14T02:50:41.018Z,11.63
2022-09-14T02:53:30.115Z,11.77
2022-09-14T02:56:04.580Z,12.53
2022-09-14T02:58:40.662Z,10.70
2022-09-14T03:01:10.398Z,12.13
2022-09-14T03:03:38.259Z,10.57
2022-09-14T03:06:06.673Z,11.17
2022-09-14T03:08:34.325Z,17.25
2022-09-14T03:11:02.420Z,13.75
2022-09-14T03:13:30.045Z,13.73
2022-09-14T03:15:57.725Z,11.97
2022-09-14T03:18:25.355Z,17.07
2022-09-14T03:20:52.954Z,13.52
2022-09-14T03:23:20.837Z,10.98
2022-09-14T03:25:48.494Z,13.38
2022-09-14T03:28:16.181Z,13.70
2022-09-14T03:30:43.726Z,12.80
2022-09-14T03:33:12.090Z,14.18
2022-09-14T03:35:39.671Z,15.55
2022-09-14T03:38:07.871Z,14.10
2022-09-14T03:40:35.940Z,14.82
2022-09-14T03:43:03.541Z,17.92
2022-09-14T03:45:31.355Z,14.13
2022-09-14T03:47:58.902Z,14.98
2022-09-14T03:50:26.472Z,14.67
2022-09-14T03:52:54.092Z,15.38
2022-09-14T03:55:21.943Z,15.43
2022-09-14T03:57:53.949Z,13.77
2022-09-14T04:00:21.731Z,10.63
2022-09-14T04:02:49.406Z,14.17
2022-09-14T04:05:21.574Z,15.60
2022-09-14T04:07:49.468Z,14.65
2022-09-14T04:10:17.244Z,14.93
2022-09-14T04:12:44.881Z,15.60
2022-09-14T04:15:12.469Z,15.03
2022-09-14T04:17:40.727Z,16.03
2022-09-14T04:20:08.862Z,14.00
2022-09-14T04:22:36.574Z,14.65
2022-09-14T04:25:04.458Z,15.00
2022-09-14T04:27:32.177Z,13.85
2022-09-14T04:29:59.743Z,14.02
2022-09-14T04:32:32.066Z,18.17
2022-09-14T04:35:02.005Z,13.15
2022-09-14T04:37:32.003Z,11.10
2022-09-14T04:40:00.005Z,14.45
2022-09-14T04:42:29.236Z,15.48
2022-09-14T04:44:56.885Z,16.20
2022-09-14T04:47:24.450Z,16.27
2022-09-14T04:49:52.139Z,16.30
2022-09-14T04:52:19.940Z,17.58
2022-09-14T04:54:47.531Z,18.80
2022-09-14T04:57:15.262Z,17.85
2022-09-14T04:59:42.817Z,16.13
2022-09-14T05:02:10.453Z,15.17
2022-09-14T05:04:38.093Z,18.93
2022-09-14T05:07:05.740Z,16.20
2022-09-14T05:09:33.287Z,16.08
2022-09-14T05:12:01.013Z,17.13
2022-09-14T05:14:28.609Z,18.30
2022-09-14T05:17:01.137Z,18.85
2022-09-14T05:19:28.750Z,21.05
2022-09-14T05:21:56.386Z,21.00
2022-09-14T05:24:24.070Z,20.75
2022-09-14T05:26:55.119Z,24.63
2022-09-14T05:29:25.904Z,21.53
2022-09-14T05:31:53.494Z,25.10
2022-09-14T05:34:21.079Z,22.83
2022-09-14T05:36:48.799Z,23.80
2022-09-14T05:39:21.056Z,22.53
2022-09-14T05:41:51.632Z,22.70
2022-09-14T05:44:19.354Z,23.60
2022-09-14T05:46:46.970Z,22.70
2022-09-14T05:49:14.637Z,20.70
2022-09-14T05:51:42.276Z,24.50
2022-09-14T05:54:11.606Z,24.63
2022-09-14T05:56:39.247Z,20.02
2022-09-14T05:59:07.017Z,22.60
2022-09-14T06:01:34.733Z,20.63
2022-09-14T06:04:02.725Z,20.67
2022-09-14T06:06:31.985Z,22.85
2022-09-14T06:09:00.231Z,20.60
2022-09-14T06:11:34.041Z,18.50
2022-09-14T06:14:02.004Z,19.15
2022-09-14T06:16:29.797Z,18.98
2022-09-14T06:18:59.181Z,18.67
2022-09-14T06:21:34.896Z,18.87
2022-09-14T06:24:03.344Z,17.58
2022-09-14T06:26:31.453Z,18.20
2022-09-14T06:28:59.452Z,16.40
2022-09-14T06:31:27.008Z,14.50
2022-09-14T06:33:54.913Z,14.95
2022-09-14T06:36:27.553Z,15.15
2022-09-14T06:38:56.003Z,15.63
2022-09-14T06:41:28.957Z,15.65
2022-09-14T06:43:58.482Z,16.33
2022-09-14T06:46:29.053Z,16.73
2022-09-14T06:48:59.829Z,15.77
2022-09-14T06:51:30.669Z,17.48
2022-09-14T06:54:00.126Z,15.00
2022-09-14T06:56:31.201Z,16.05
2022-09-14T06:58:59.529Z,17.10
2022-09-14T07:01:27.659Z,16.08
2022-09-14T07:03:55.618Z,16.42
2022-09-14T07:06:25.879Z,15.65
2022-09-14T07:08:54.469Z,15.93
2022-09-14T07:11:26.343Z,18.88
2022-09-14T07:13:55.557Z,16.67
2022-09-14T07:16:23.933Z,17.23
2022-09-14T07:19:06.390Z,16.67
2022-09-14T07:21:44.455Z,14.13
2022-09-14T07:24:14.885Z,13.80
2022-09-14T07:26:43.247Z,13.88
2022-09-14T07:29:16.937Z,16.33
2022-09-14T07:31:48.146Z,17.13
2022-09-14T07:34:20.428Z,15.05
2022-09-14T07:36:53.337Z,13.68
2022-09-14T07:39:20.948Z,14.15
2022-09-14T07:41:48.959Z,14.77
2022-09-14T07:44:17.918Z,17.23
2022-09-14T07:46:46.648Z,14.35
2022-09-14T07:49:15.533Z,12.93
2022-09-14T07:51:43.734Z,13.07
2022-09-14T07:54:13.439Z,11.55
2022-09-14T07:56:42.355Z,13.07
2022-09-14T07:59:34.689Z,12.15
2022-09-14T08:02:01.942Z,12.30
2022-09-14T08:04:29.708Z,12.10
2022-09-14T08:06:58.435Z,13.10
2022-09-14T08:09:26.812Z,11.48
2022-09-14T08:11:54.555Z,11.85
2022-09-14T08:14:22.190Z,10.38
2022-09-14T08:16:50.102Z,10.60
2022-09-14T08:19:20.888Z,9.98
2022-09-14T08:21:48.829Z,9.70
2022-09-14T08:24:19.103Z,9.53
2022-09-14T08:26:47.764Z,9.30
2022-09-14T08:29:17.398Z,8.63
2022-09-14T08:31:47.085Z,9.10
2022-09-14T08:34:16.087Z,8.35
2022-09-14T08:36:45.452Z,9.45
2022-09-14T08:39:14.395Z,9.30
2022-09-14T08:41:55.573Z,10.65
2022-09-14T08:44:46.655Z,9.70
2022-09-14T08:47:25.968Z,9.10
2022-09-14T08:50:19.782Z,8.82
2022-09-14T08:52:52.830Z,9.05
2022-09-14T08:55:42.973Z,8.32
2022-09-14T08:58:10.521Z,8.00
2022-09-14T09:00:53.945Z,8.00
2022-09-14T09:03:40.062Z,8.60
2022-09-14T09:06:16.204Z,8.82
2022-09-14T09:08:55.898Z,8.27
2022-09-14T09:11:28.490Z,8.45
2022-09-14T09:13:56.647Z,7.32
2022-09-14T09:16:27.431Z,7.53
2022-09-14T09:19:11.663Z,6.40
2022-09-14T09:21:43.646Z,6.72
2022-09-14T09:24:37.540Z,7.97
2022-09-14T09:27:16.035Z,5.72
2022-09-14T09:29:44.280Z,5.95
2022-09-14T09:32:19.647Z,5.68
2022-09-14T09:34:52.999Z,5.38
2022-09-14T09:37:45.992Z,6.05
2022-09-14T09:40:26.953Z,4.72
2022-09-14T09:43:33.535Z,6.18
2022-09-14T09:46:07.894Z,4.97
2022-09-14T09:48:38.514Z,3.97
2022-09-14T09:51:30.502Z,5.05
2022-09-14T09:54:17.720Z,6.43
2022-09-14T09:57:07.562Z,4.13
2022-09-14T09:59:41.634Z,4.43
2022-09-14T10:02:31.556Z,4.45
2022-09-14T10:05:18.842Z,4.13
2022-09-14T10:07:49.241Z,6.80
2022-09-14T10:10:24.905Z,4.28
2022-09-14T10:12:55.423Z,4.65
2022-09-14T10:15:28.260Z,5.30
2022-09-14T10:18:11.198Z,4.65
2022-09-14T10:21:29.423Z,4.13
2022-09-14T10:24:16.253Z,3.50
2022-09-14T10:26:44.067Z,3.72
2022-09-14T10:29:32.629Z,6.40
2022-09-14T10:32:11.008Z,3.90
2022-09-14T10:34:38.602Z,8.02
2022-09-14T10:37:43.624Z,5.00
2022-09-14T10:40:18.585Z,4.95
2022-09-14T10:43:09.768Z,4.07
2022-09-14T10:45:47.101Z,5.93
2022-09-14T10:48:58.807Z,6.03
2022-09-14T10:51:37.244Z,4.63
2022-09-14T10:54:16.751Z,5.95
2022-09-14T10:56:54.476Z,5.78
2022-09-14T10:59:44.073Z,7.45
2022-09-14T11:02:26.585Z,6.53
2022-09-14T11:05:13.057Z,7.75
2022-09-14T11:08:05.687Z,6.68
2022-09-14T11:10:36.181Z,8.32
2022-09-14T11:13:37.563Z,10.00
2022-09-14T11:16:18.060Z,10.73
2022-09-14T11:19:27.033Z,8.35
2022-09-14T11:22:12.781Z,7.05
2022-09-14T11:25:02.271Z,12.90
2022-09-14T11:27:43.330Z,6.38
2022-09-14T11:30:20.444Z,6.65
2022-09-14T11:33:03.836Z,7.35
2022-09-14T11:35:54.787Z,6.95
2022-09-14T11:38:29.420Z,6.90
2022-09-14T11:41:26.408Z,6.80
2022-09-14T11:44:05.097Z,6.57
2022-09-14T11:46:50.717Z,7.95
2022-09-14T11:49:57.493Z,7.68
2022-09-14T11:52:28.003Z,7.70
2022-09-14T11:54:56.375Z,8.98
2022-09-14T11:57:26.690Z,9.18
2022-09-14T11:59:56.719Z,8.68
2022-09-14T12:02:30.364Z,11.13
2022-09-14T12:05:07.187Z,10.27
2022-09-14T12:07:46.784Z,9.60
2022-09-14T12:10:14.461Z,9.43
2022-09-14T12:12:46.478Z,12.48
2022-09-14T12:15:23.047Z,8.75
2022-09-14T12:18:10.608Z,8.77
2022-09-14T12:20:41.337Z,14.23
2022-09-14T12:23:33.090Z,10.38
2022-09-14T12:26:06.810Z,12.43
2022-09-14T12:28:39.897Z,12.32
2022-09-14T12:31:13.859Z,10.95
2022-09-14T12:33:43.093Z,9.90
2022-09-14T12:36:20.770Z,12.35
2022-09-14T12:38:52.270Z,11.82
2022-09-14T12:41:19.866Z,13.57
2022-09-14T12:43:47.689Z,10.52
2022-09-14T12:46:21.144Z,13.68
2022-09-14T12:48:55.688Z,12.23
2022-09-14T12:51:29.124Z,17.60
2022-09-14T12:54:26.086Z,13.82
2022-09-14T12:57:06.063Z,14.38
2022-09-14T12:59:54.825Z,15.10
2022-09-14T13:02:37.320Z,11.65
2022-09-14T13:05:08.036Z,14.50
2022-09-14T13:07:39.151Z,12.10
2022-09-14T13:10:07.478Z,13.07
2022-09-14T13:12:41.260Z,12.50
2022-09-14T13:15:37.298Z,12.70
2022-09-14T13:18:24.666Z,17.50
2022-09-14T13:21:00.724Z,13.85
2022-09-14T13:23:32.100Z,16.17
2022-09-14T13:26:00.328Z,15.88
2022-09-14T13:28:31.717Z,14.73
2022-09-14T13:31:01.432Z,15.57
2022-09-14T13:33:30.099Z,19.40
2022-09-14T13:36:00.943Z,19.08
2022-09-14T13:38:34.549Z,20.90
2022-09-14T13:41:09.244Z,22.88
2022-09-14T13:43:37.546Z,23.60
2022-09-14T13:46:11.586Z,26.60
2022-09-14T13:48:41.418Z,32.88
2022-09-14T13:51:14.499Z,17.98
2022-09-14T13:53:51.399Z,11.60
2022-09-14T13:56:28.193Z,7.40
2022-09-14T13:59:15.481Z,6.95
2022-09-14T14:01:52.044Z,10.70
2022-09-14T14:04:37.618Z,10.07
2022-09-14T14:07:16.204Z,14.00
2022-09-14T14:09:57.196Z,12.60
2022-09-14T14:12:37.561Z,13.68
2022-09-14T14:15:27.216Z,18.75
2022-09-14T14:17:54.971Z,14.88
2022-09-14T14:20:38.968Z,13.73
2022-09-14T14:23:06.553Z,15.60
2022-09-14T14:25:47.435Z,17.52
2022-09-14T14:28:29.580Z,17.10
2022-09-14T14:30:59.917Z,16.77
2022-09-14T14:33:27.645Z,22.60
2022-09-14T14:35:56.887Z,16.98
2022-09-14T14:38:25.175Z,16.65
2022-09-14T14:40:55.409Z,17.42
2022-09-14T14:43:26.000Z,16.92
2022-09-14T14:45:59.517Z,14.50
2022-09-14T14:48:28.955Z,15.25
2022-09-14T14:50:56.824Z,12.52
2022-09-14T14:53:25.810Z,13.02
2022-09-14T14:55:53.764Z,14.57
2022-09-14T14:58:22.391Z,15.18
2022-09-14T15:00:51.720Z,15.13
2022-09-14T15:03:19.388Z,16.80
2022-09-14T15:05:48.462Z,13.25
2022-09-14T15:08:19.901Z,16.05
2022-09-14T15:10:49.610Z,13.75
2022-09-14T15:13:17.237Z,15.18
2022-09-14T15:15:45.008Z,13.75
2022-09-14T15:18:12.728Z,16.23
2022-09-14T15:20:41.057Z,15.75
2022-09-14T15:23:12.073Z,15.18
2022-09-14T15:25:40.288Z,12.98
2022-09-14T15:28:08.330Z,14.18
2022-09-14T15:30:36.100Z,12.63
2022-09-14T15:33:03.768Z,15.75
2022-09-14T15:35:31.356Z,13.18
2022-09-14T15:37:58.922Z,15.98
2022-09-14T15:40:26.633Z,12.95
2022-09-14T15:42:54.457Z,16.92
2022-09-14T15:45:22.186Z,14.18
2022-09-14T15:47:49.841Z,11.98
2022-09-14T15:50:17.529Z,19.00
2022-09-14T15:52:45.299Z,15.57
2022-09-14T15:55:13.027Z,16.58
2022-09-14T15:57:41.065Z,15.05
2022-09-14T16:00:11.882Z,7.90
2022-09-14T16:02:39.802Z,10.43
2022-09-14T16:05:08.024Z,11.70
2022-09-14T16:07:35.686Z,5.53
2022-09-14T16:10:03.508Z,5.90
2022-09-14T16:12:31.089Z,6.57
2022-09-14T16:14:58.714Z,4.28
2022-09-14T16:17:26.351Z,5.68
2022-09-14T16:19:54.038Z,7.38
2022-09-14T16:22:21.874Z,5.57
2022-09-14T16:24:49.461Z,7.00
2022-09-14T16:27:17.396Z,3.30
2022-09-14T16:29:45.001Z,5.65
2022-09-14T16:32:12.778Z,4.55
2022-09-14T16:34:40.408Z,4.45
2022-09-14T16:37:08.120Z,1.60
2022-09-14T16:39:35.844Z,2.75
2022-09-14T16:42:03.521Z,1.50
2022-09-14T16:44:31.170Z,3.33
2022-09-14T16:46:59.210Z,3.47
2022-09-14T16:49:28.287Z,2.50
2022-09-14T16:51:57.359Z,1.77
2022-09-14T16:54:25.896Z,2.40
2022-09-14T16:56:58.099Z,1.50
2022-09-14T16:59:26.539Z,3.07
2022-09-14T17:01:55.555Z,2.47
2022-09-14T17:04:24.675Z,3.33
2022-09-14T17:06:53.285Z,2.60
2022-09-14T17:09:23.677Z,3.43
2022-09-14T17:11:51.937Z,3.80
2022-09-14T17:14:22.699Z,7.57
2022-09-14T17:16:50.605Z,3.40
2022-09-14T17:19:18.985Z,4.87
2022-09-14T17:21:47.560Z,1.40
2022-09-14T17:24:18.319Z,3.93
2022-09-14T17:26:46.798Z,5.13
2022-09-14T17:29:15.303Z,11.47
2022-09-14T17:31:44.671Z,6.00
2022-09-14T17:34:15.848Z,3.20
2022-09-14T17:36:44.129Z,2.77
2022-09-14T17:39:12.800Z,5.90
2022-09-14T17:41:42.624Z,3.17
2022-09-14T17:44:12.559Z,5.67
2022-09-14T17:46:51.272Z,2.53
2022-09-14T17:49:21.357Z,2.67
2022-09-14T17:51:49.428Z,5.97
2022-09-14T17:54:17.774Z,4.27
2022-09-14T17:56:45.567Z,3.17
2022-09-14T17:59:16.242Z,3.33
2022-09-14T18:01:43.878Z,3.90
2022-09-14T18:04:13.228Z,3.37
2022-09-14T18:06:44.237Z,2.73
2022-09-14T18:09:21.731Z,3.28
2022-09-14T18:11:50.491Z,2.03
2022-09-14T18:14:19.367Z,4.63
2022-09-14T18:16:47.168Z,3.60
2022-09-14T18:19:15.620Z,1.97
2022-09-14T18:21:44.434Z,4.37
2022-09-14T18:24:13.236Z,3.50
2022-09-14T18:26:41.075Z,2.97
2022-09-14T18:29:10.473Z,5.35
2022-09-14T18:31:38.388Z,2.27
2022-09-14T18:34:08.257Z,4.30
2022-09-14T18:36:36.014Z,3.00
2022-09-14T18:39:04.212Z,4.57
2022-09-14T18:41:34.020Z,4.00
2022-09-14T18:44:02.259Z,2.55
2022-09-14T18:46:30.470Z,3.57
2022-09-14T18:49:00.263Z,5.20
2022-09-14T18:51:29.411Z,3.47
2022-09-14T18:53:58.950Z,5.03
2022-09-14T18:56:27.982Z,3.40
2022-09-14T18:58:56.368Z,5.20
2022-09-14T19:01:24.259Z,2.93
2022-09-14T19:03:53.773Z,4.80
2022-09-14T19:06:21.972Z,2.53
2022-09-14T19:08:49.986Z,2.60
2022-09-14T19:11:19.967Z,2.70
2022-09-14T19:13:48.543Z,6.23
2022-09-14T19:16:18.850Z,3.27
2022-09-14T19:18:48.575Z,2.67
2022-09-14T19:21:25.931Z,5.43
2022-09-14T19:24:09.806Z,4.43
2022-09-14T19:26:44.774Z,4.13
2022-09-14T19:29:15.297Z,5.03
2022-09-14T19:31:43.018Z,3.57
2022-09-14T19:34:11.614Z,6.07
2022-09-14T19:36:39.504Z,4.03
2022-09-14T19:39:07.380Z,3.07
2022-09-14T19:41:35.784Z,5.70
2022-09-14T19:44:06.583Z,5.00
2022-09-14T19:46:36.318Z,3.67
2022-09-14T19:49:04.157Z,3.10
2022-09-14T19:51:31.978Z,4.43
2022-09-14T19:54:00.551Z,4.60
2022-09-14T19:56:30.599Z,2.78
2022-09-14T19:59:00.432Z,3.80
2022-09-14T20:01:29.770Z,4.23
2022-09-14T20:03:57.942Z,3.67
2022-09-14T20:06:36.595Z,3.97
2022-09-14T20:09:07.742Z,8.73
2022-09-14T20:11:37.244Z,3.30
2022-09-14T20:14:07.214Z,7.57
2022-09-14T20:16:42.565Z,5.77
2022-09-14T20:19:13.565Z,5.17
2022-09-14T20:21:41.981Z,4.67
2022-09-14T20:24:17.196Z,5.63
2022-09-14T20:26:47.169Z,5.67
2022-09-14T20:29:16.086Z,3.37
2022-09-14T20:31:44.390Z,4.07
2022-09-14T20:34:13.264Z,3.50
2022-09-14T20:36:41.326Z,8.63
2022-09-14T20:39:09.197Z,3.63
2022-09-14T20:41:37.413Z,6.93
2022-09-14T20:44:05.801Z,5.70
2022-09-14T20:46:39.490Z,4.80
2022-09-14T20:49:11.222Z,3.47
2022-09-14T20:51:39.571Z,3.33
2022-09-14T20:54:08.520Z,3.67
2022-09-14T20:56:36.742Z,4.97
2022-09-14T20:59:07.133Z,5.40
2022-09-14T21:01:36.736Z,4.60
2022-09-14T21:04:08.941Z,5.97
2022-09-14T21:06:39.430Z,3.40
2022-09-14T21:09:08.343Z,4.00
2022-09-14T21:11:36.403Z,4.27
2022-09-14T21:14:04.471Z,3.07
2022-09-14T21:16:38.094Z,6.10
2022-09-14T21:19:08.970Z,3.70
2022-09-14T21:21:36.638Z,5.03
2022-09-14T21:24:07.042Z,4.47
2022-09-14T21:26:36.070Z,5.30
2022-09-14T21:29:07.445Z,5.77
2022-09-14T21:31:37.372Z,3.00
2022-09-14T21:34:07.154Z,4.22
2022-09-14T21:36:37.676Z,2.92
2022-09-14T21:39:09.099Z,3.83
2022-09-14T21:41:37.938Z,5.20
2022-09-14T21:44:06.228Z,4.78
2022-09-14T21:46:34.459Z,3.10
2022-09-14T21:49:02.277Z,4.73
2022-09-14T21:51:35.040Z,3.50
2022-09-14T21:54:05.438Z,3.23
2022-09-14T21:56:36.716Z,6.60
2022-09-14T21:59:07.271Z,4.57
2022-09-14T22:01:35.304Z,3.10
2022-09-14T22:04:03.937Z,3.92
2022-09-14T22:06:32.567Z,4.93
2022-09-14T22:09:01.259Z,3.40
2022-09-14T22:11:35.766Z,4.22
2022-09-14T22:14:07.073Z,3.97
2022-09-14T22:16:36.912Z,4.93
2022-09-14T22:19:08.754Z,4.10
2022-09-14T22:21:38.167Z,4.77
2022-09-14T22:24:08.631Z,4.37
2022-09-14T22:26:37.115Z,4.80
2022-09-14T22:29:05.829Z,3.13
2022-09-14T22:31:33.513Z,4.53
2022-09-14T22:34:01.128Z,5.43
2022-09-14T22:36:29.281Z,4.90
2022-09-14T22:38:58.649Z,6.20
2022-09-14T22:41:27.959Z,5.93
2022-09-14T22:43:56.251Z,4.93
2022-09-14T22:46:24.854Z,5.17
2022-09-14T22:48:53.280Z,3.40
2022-09-14T22:51:24.036Z,3.63
2022-09-14T22:53:52.740Z,5.00
2022-09-14T22:56:29.826Z,3.30
2022-09-14T22:58:58.206Z,3.45
2022-09-14T23:01:31.209Z,3.53
2022-09-14T23:04:04.861Z,4.85
2022-09-14T23:06:35.492Z,3.63
2022-09-14T23:09:04.287Z,3.87
2022-09-14T23:11:31.895Z,5.30
2022-09-14T23:13:59.802Z,7.47
2022-09-14T23:16:29.339Z,4.43
2022-09-14T23:19:00.028Z,5.80
2022-09-14T23:21:29.206Z,6.17
2022-09-14T23:24:00.400Z,3.57
2022-09-14T23:26:28.565Z,4.40
2022-09-14T23:29:05.956Z,5.23
2022-09-14T23:31:34.147Z,6.80
2022-09-14T23:34:03.423Z,4.50
2022-09-14T23:36:31.721Z,4.60
2022-09-14T23:38:59.350Z,4.00
2022-09-14T23:41:27.770Z,3.60
2022-09-14T23:43:55.467Z,5.20
2022-09-14T23:46:23.566Z,3.87
2022-09-14T23:48:51.870Z,4.73
2022-09-14T23:51:19.862Z,4.53
2022-09-14T23:53:47.760Z,6.13
2022-09-14T23:56:15.531Z,4.43
2022-09-14T23:58:43.873Z,4.47
